createdAt,value
2019-01-21T00:16:50.830Z,79.62
2019-01-21T00:19:55.820Z,71.62
2019-01-21T00:22:28.852Z,76.50
2019-01-21T00:25:02.464Z,69.58
2019-01-21T00:28:09.936Z,75.30
2019-01-21T00:30:39.414Z,71.25
2019-01-21T00:33:12.034Z,69.40
2019-01-21T00:35:41.585Z,74.00
2019-01-21T00:38:12.584Z,73.28
2019-01-21T00:43:41.336Z,73.97
2019-01-21T00:47:00.295Z,71.10
2019-01-21T01:02:04.453Z,69.70
2019-01-21T01:08:05.469Z,84.10
2019-01-21T01:10:55.623Z,72.97
2019-01-21T01:13:30.951Z,85.10
2019-01-21T01:19:30.654Z,82.08
2019-01-21T01:22:21.914Z,75.45
2019-01-21T01:24:53.407Z,74.55
2019-01-21T01:27:28.148Z,78.00
2019-01-21T01:29:57.739Z,70.70
2019-01-21T01:32:27.411Z,77.47
2019-01-21T01:34:57.089Z,80.00
2019-01-21T01:37:26.558Z,76.62
2019-01-21T01:39:56.570Z,83.20
2019-01-21T02:10:28.310Z,64.40
2019-01-21T02:18:06.627Z,73.37
2019-01-21T02:21:16.591Z,69.05
2019-01-21T02:27:13.155Z,71.65
2019-01-21T02:30:04.085Z,74.80
2019-01-21T02:33:11.995Z,68.80
2019-01-21T02:37:08.376Z,74.25
2019-01-21T03:10:50.976Z,68.60
2019-01-21T03:14:08.504Z,79.45
2019-01-21T03:21:07.020Z,78.92
2019-01-21T03:24:02.432Z,73.62
2019-01-21T03:26:50.007Z,68.55
2019-01-21T03:30:14.100Z,84.25
2019-01-21T03:33:16.545Z,82.37
2019-01-21T03:35:58.069Z,84.95
2019-01-21T03:39:20.467Z,88.22
2019-01-21T03:42:02.601Z,89.07
2019-01-21T03:45:25.180Z,79.03
2019-01-21T04:12:46.039Z,83.62
2019-01-21T04:25:06.554Z,79.22
2019-01-21T06:16:46.565Z,72.65
2019-01-21T06:23:59.090Z,72.25
2019-01-21T07:31:17.325Z,61.83
2019-01-21T07:34:25.564Z,75.87
2019-01-21T07:37:14.996Z,67.95
2019-01-21T07:40:23.793Z,74.70
2019-01-21T07:43:41.103Z,71.95
2019-01-21T07:46:19.717Z,80.47
2019-01-21T07:49:17.360Z,74.45
2019-01-21T07:52:17.252Z,71.12
2019-01-21T07:55:28.667Z,69.72
2019-01-21T07:58:57.063Z,74.00
2019-01-21T08:01:41.422Z,68.35
2019-01-21T08:04:37.070Z,72.47
2019-01-21T08:07:21.931Z,79.87
2019-01-21T08:10:49.893Z,75.08
2019-01-21T08:13:50.763Z,71.50
2019-01-21T08:17:12.709Z,66.87
2019-01-21T08:20:18.753Z,68.20
2019-01-21T08:23:24.338Z,66.00
2019-01-21T08:26:06.506Z,67.22
2019-01-21T08:29:02.375Z,66.05
2019-01-21T08:32:00.148Z,59.40
2019-01-21T08:34:51.134Z,66.00
2019-01-21T08:37:47.799Z,63.65
2019-01-21T08:41:12.931Z,70.90
2019-01-21T08:44:11.352Z,72.72
2019-01-21T08:47:26.985Z,62.78
2019-01-21T08:50:17.870Z,60.83
2019-01-21T08:53:19.924Z,73.60
2019-01-21T08:56:28.167Z,68.67
2019-01-21T08:59:46.943Z,59.35
2019-01-21T09:03:21.540Z,78.67
2019-01-21T09:06:35.576Z,71.33
2019-01-21T09:09:38.642Z,72.03
2019-01-21T09:12:29.741Z,70.30
2019-01-21T09:15:31.002Z,66.90
2019-01-21T09:18:44.627Z,58.33
2019-01-21T09:21:36.638Z,62.25
2019-01-21T09:24:27.748Z,66.10
2019-01-21T09:27:40.217Z,57.10
2019-01-21T09:30:50.616Z,53.30
2019-01-21T09:33:51.920Z,65.45
2019-01-21T09:36:56.484Z,60.43
2019-01-21T09:40:22.873Z,66.25
2019-01-21T09:43:17.807Z,61.83
2019-01-21T09:46:15.712Z,64.25
2019-01-21T09:48:50.724Z,57.50
2019-01-21T09:51:20.483Z,64.92
2019-01-21T09:53:54.025Z,62.03
2019-01-21T09:56:24.234Z,64.87
2019-01-21T09:58:56.346Z,59.73
2019-01-21T10:01:29.766Z,61.92
2019-01-21T10:07:54.229Z,48.98
2019-01-21T10:38:33.217Z,53.20
2019-01-21T10:42:21.698Z,49.80
2019-01-21T10:49:38.768Z,46.50
2019-01-21T10:56:48.443Z,45.58
2019-01-21T11:00:49.721Z,52.25
2019-01-21T11:03:48.884Z,48.60
2019-01-21T11:07:00.473Z,48.40
2019-01-21T11:10:22.944Z,46.80
2019-01-21T11:13:56.867Z,44.42
2019-01-21T11:37:01.922Z,48.10
2019-01-21T11:51:41.811Z,40.33
2019-01-21T12:09:29.393Z,39.67
2019-01-21T12:13:00.993Z,34.67
2019-01-21T12:32:45.760Z,34.43
2019-01-21T12:43:19.909Z,40.28
2019-01-21T13:38:56.452Z,35.05
2019-01-21T13:42:19.774Z,39.00
2019-01-21T13:45:44.445Z,40.75
2019-01-21T13:48:45.437Z,35.92
2019-01-21T13:52:07.816Z,35.40
2019-01-21T13:55:12.696Z,39.53
2019-01-21T13:58:09.904Z,40.65
2019-01-21T14:00:49.452Z,34.83
2019-01-21T14:03:52.609Z,37.60
2019-01-21T14:06:38.375Z,47.45
2019-01-21T14:09:48.392Z,42.17
2019-01-21T14:12:43.736Z,40.60
2019-01-21T14:15:48.495Z,42.35
2019-01-21T14:19:00.988Z,40.35
2019-01-21T14:21:55.594Z,42.30
2019-01-21T14:25:22.131Z,39.05
2019-01-21T14:28:25.852Z,40.35
2019-01-21T14:31:34.905Z,40.90
2019-01-21T14:34:18.774Z,49.35
2019-01-21T14:37:26.044Z,36.85
2019-01-21T14:40:23.784Z,38.60
2019-01-21T14:43:29.945Z,41.90
2019-01-21T14:46:35.392Z,43.38
2019-01-21T14:49:20.689Z,41.37
2019-01-21T14:52:54.835Z,43.87
2019-01-21T14:55:31.316Z,40.50
2019-01-21T14:58:41.691Z,37.65
2019-01-21T15:01:40.716Z,38.85
2019-01-21T15:04:41.543Z,39.78
2019-01-21T15:07:35.416Z,40.78
2019-01-21T15:10:59.667Z,45.73
2019-01-21T15:13:51.003Z,38.10
2019-01-21T15:16:50.531Z,44.08
2019-01-21T15:19:54.399Z,41.23
2019-01-21T15:22:55.455Z,39.67
2019-01-21T15:29:21.796Z,42.13
2019-01-21T15:32:27.653Z,44.50
2019-01-21T15:35:25.975Z,38.73
2019-01-21T15:38:09.667Z,42.08
2019-01-21T15:41:00.083Z,47.88
2019-01-21T15:43:39.667Z,44.77
2019-01-21T15:46:26.198Z,42.70
2019-01-21T15:49:24.535Z,46.00
2019-01-21T15:52:33.833Z,53.42
2019-01-21T15:55:34.825Z,55.25
2019-01-21T15:58:43.602Z,45.55
2019-01-21T16:01:50.822Z,51.08
2019-01-21T16:04:40.925Z,44.67
2019-01-21T16:07:40.373Z,47.13
2019-01-21T16:10:49.910Z,47.50
2019-01-21T16:13:41.801Z,48.05
2019-01-21T16:16:45.699Z,48.78
2019-01-21T16:19:23.599Z,46.35
2019-01-21T16:22:22.917Z,47.67
2019-01-21T16:25:34.892Z,43.02
2019-01-21T16:28:19.242Z,46.15
2019-01-21T16:31:16.566Z,53.78
2019-01-21T16:34:18.451Z,46.18
2019-01-21T16:37:01.326Z,48.25
2019-01-21T16:40:12.777Z,49.48
2019-01-21T16:42:41.702Z,50.10
2019-01-21T16:45:10.790Z,40.80
2019-01-21T16:47:39.749Z,51.75
2019-01-21T16:50:08.895Z,43.33
2019-01-21T16:52:37.821Z,43.65
2019-01-21T16:55:06.930Z,39.48
2019-01-21T16:57:35.899Z,43.60
2019-01-21T17:00:05.849Z,38.58
2019-01-21T17:02:34.656Z,44.70
2019-01-21T17:05:04.298Z,49.20
2019-01-21T17:07:33.291Z,41.68
2019-01-21T17:10:02.752Z,38.73
2019-01-21T17:12:31.745Z,37.35
2019-01-21T17:15:00.689Z,35.63
2019-01-21T17:17:29.573Z,36.55
2019-01-21T17:19:58.738Z,39.73
2019-01-21T17:22:28.022Z,36.38
2019-01-21T17:24:57.119Z,39.80
2019-01-21T17:27:26.160Z,36.30
2019-01-21T17:29:55.191Z,38.88
2019-01-21T17:32:24.291Z,39.73
2019-01-21T17:34:53.249Z,39.33
2019-01-21T17:37:22.151Z,36.77
2019-01-21T17:39:51.096Z,37.65
2019-01-21T17:42:20.058Z,37.38
2019-01-21T17:44:49.059Z,40.45
2019-01-21T17:47:18.262Z,37.55
2019-01-21T17:49:47.403Z,46.58
2019-01-21T17:52:16.643Z,42.67
2019-01-21T17:54:45.787Z,42.73
2019-01-21T17:57:14.914Z,40.55
2019-01-21T17:59:44.129Z,41.65
2019-01-21T18:02:13.384Z,40.20
2019-01-21T18:04:42.450Z,43.42
2019-01-21T18:07:11.434Z,38.20
2019-01-21T18:09:40.363Z,49.15
2019-01-21T18:12:09.179Z,44.10
2019-01-21T18:14:38.133Z,43.68
2019-01-21T18:17:07.211Z,45.98
2019-01-21T18:19:36.312Z,42.65
2019-01-21T18:22:05.441Z,41.02
2019-01-21T18:24:34.309Z,42.58
2019-01-21T18:27:03.487Z,40.75
2019-01-21T18:29:32.408Z,47.33
2019-01-21T18:32:01.401Z,41.42
2019-01-21T18:34:30.290Z,46.05
2019-01-21T18:36:59.336Z,51.88
2019-01-21T18:39:28.167Z,41.10
2019-01-21T18:41:57.302Z,38.08
2019-01-21T18:44:26.269Z,45.15
2019-01-21T18:46:55.250Z,52.67
2019-01-21T18:49:24.927Z,51.08
2019-01-21T18:51:54.067Z,39.83
2019-01-21T18:54:22.912Z,44.15
2019-01-21T18:56:52.278Z,50.67
2019-01-21T18:59:21.464Z,47.83
2019-01-21T19:01:53.784Z,51.65
2019-01-21T19:04:22.920Z,45.48
2019-01-21T19:06:52.036Z,47.73
2019-01-21T19:09:21.270Z,55.00
2019-01-21T19:11:50.367Z,46.20
2019-01-21T19:14:22.698Z,44.35
2019-01-21T19:16:51.987Z,41.02
2019-01-21T19:19:21.347Z,45.12
2019-01-21T19:21:53.665Z,36.03
2019-01-21T19:24:21.637Z,45.58
2019-01-21T19:26:50.616Z,45.40
2019-01-21T19:29:19.601Z,45.83
2019-01-21T19:31:48.708Z,50.73
2019-01-21T19:34:17.701Z,50.23
2019-01-21T19:36:46.648Z,54.60
2019-01-21T19:39:15.740Z,53.65
2019-01-21T19:41:44.818Z,55.73
2019-01-21T19:44:13.941Z,52.75
2019-01-21T19:46:44.248Z,51.83
2019-01-21T19:49:13.614Z,53.40
2019-01-21T19:51:42.751Z,57.70
2019-01-21T19:54:11.877Z,54.90
2019-01-21T19:56:41.061Z,50.98
2019-01-21T19:59:10.096Z,51.33
2019-01-21T20:01:39.118Z,48.83
2019-01-21T20:04:08.229Z,51.42
2019-01-21T20:06:37.305Z,53.25
2019-01-21T20:09:08.027Z,50.03
2019-01-21T20:11:37.017Z,52.55
2019-01-21T20:14:06.245Z,52.15
2019-01-21T20:16:35.093Z,57.05
2019-01-21T20:19:04.167Z,50.75
2019-01-21T20:21:34.227Z,54.35
2019-01-21T20:24:03.472Z,51.25
2019-01-21T20:26:32.862Z,56.50
2019-01-21T20:29:01.838Z,52.23
2019-01-21T20:31:30.961Z,51.92
2019-01-21T20:33:59.983Z,51.23
2019-01-21T20:36:29.067Z,58.73
2019-01-21T20:38:58.007Z,49.23
2019-01-21T20:41:27.123Z,52.62
2019-01-21T20:43:56.150Z,54.98
2019-01-21T20:46:25.183Z,46.92
2019-01-21T20:48:54.131Z,55.55
2019-01-21T20:51:23.231Z,46.20
2019-01-21T20:53:52.371Z,58.83
2019-01-21T20:56:21.522Z,51.37
2019-01-21T20:58:50.600Z,57.35
2019-01-21T21:01:19.654Z,50.80
2019-01-21T21:03:48.673Z,50.75
2019-01-21T21:06:17.679Z,52.13
2019-01-21T21:08:46.863Z,48.73
2019-01-21T21:11:15.951Z,50.98
2019-01-21T21:13:44.912Z,48.95
2019-01-21T21:16:13.374Z,48.08
2019-01-21T21:18:44.500Z,49.15
2019-01-21T21:21:13.629Z,58.73
2019-01-21T21:23:42.679Z,54.48
2019-01-21T21:26:11.839Z,55.60
2019-01-21T21:28:41.039Z,56.33
2019-01-21T21:31:18.478Z,56.10
2019-01-21T21:33:47.568Z,54.18
2019-01-21T21:36:16.551Z,51.23
2019-01-21T21:38:45.971Z,64.65
2019-01-21T21:41:15.183Z,60.30
2019-01-21T21:43:44.046Z,60.60
2019-01-21T21:46:13.427Z,67.32
2019-01-21T21:48:42.603Z,65.85
2019-01-21T21:51:11.672Z,54.23
2019-01-21T21:53:40.697Z,63.92
2019-01-21T21:56:12.585Z,61.90
2019-01-21T21:58:41.784Z,64.47
2019-01-21T22:01:10.827Z,60.70
2019-01-21T22:03:39.767Z,62.17
2019-01-21T22:06:08.755Z,62.62
2019-01-21T22:08:37.729Z,59.93
2019-01-21T22:11:06.829Z,66.50
2019-01-21T22:13:35.958Z,65.50
2019-01-21T22:16:05.097Z,63.48
2019-01-21T22:18:34.141Z,56.23
2019-01-21T22:21:03.098Z,55.75
2019-01-21T22:23:32.291Z,65.87
2019-01-21T22:26:01.420Z,63.73
2019-01-21T22:28:30.474Z,66.25
2019-01-21T22:31:00.197Z,65.95
2019-01-21T22:33:29.308Z,69.03
2019-01-21T22:35:58.205Z,77.25
2019-01-21T22:38:27.066Z,65.42
2019-01-21T22:40:56.005Z,70.85
2019-01-21T22:43:25.346Z,68.67
2019-01-21T22:45:54.418Z,75.08
2019-01-21T22:48:23.371Z,67.92
2019-01-21T22:50:52.286Z,66.20
2019-01-21T22:53:21.455Z,73.52
2019-01-21T22:55:50.498Z,71.65
2019-01-21T22:58:19.595Z,59.75
2019-01-21T23:00:57.667Z,70.15
2019-01-21T23:03:27.699Z,80.57
2019-01-21T23:05:56.757Z,59.33
2019-01-21T23:08:25.875Z,70.10
2019-01-21T23:10:55.137Z,72.25
2019-01-21T23:13:24.168Z,71.77
2019-01-21T23:15:53.206Z,71.47
2019-01-21T23:18:22.052Z,66.33
2019-01-21T23:20:51.412Z,69.17
2019-01-21T23:23:20.449Z,76.40
2019-01-21T23:25:49.519Z,79.72
2019-01-21T23:28:18.552Z,81.40
2019-01-21T23:30:47.479Z,67.90
2019-01-21T23:33:16.633Z,90.50
2019-01-21T23:35:45.687Z,76.85
2019-01-21T23:38:14.659Z,83.52
2019-01-21T23:40:43.787Z,91.45
2019-01-21T23:43:12.704Z,71.92
2019-01-21T23:45:41.591Z,83.65
2019-01-21T23:48:10.811Z,64.32
2019-01-21T23:50:39.861Z,58.90
2019-01-21T23:53:08.943Z,73.17
2019-01-21T23:55:38.061Z,70.05
2019-01-21T23:58:07.132Z,71.87
